Ora Direzione Vento Velocita' Vento Media Vento Raffica Max. Temperatura Wind Chill Pioggia Pressione
18:39:31.00 °(N)2.5 Kts1.6 Kts14.0 Kts12.1 °C12.1 °C0.0 mm1040.0 Hpa
18:19:29.0292 °(WNW)1.6 Kts1.0 Kts14.0 Kts12.4 °C12.4 °C0.0 mm1040.0 Hpa
17:58:28.0292 °(WNW)0.4 Kts0.0 Kts14.0 Kts12.8 °C12.8 °C0.0 mm1040.0 Hpa
17:38:24.0248 °(WSW)1.6 Kts1.4 Kts14.0 Kts13.5 °C13.5 °C0.0 mm1040.0 Hpa
17:18:24.0248 °(WSW)1.2 Kts1.2 Kts14.0 Kts14.3 °C14.3 °C0.0 mm1040.0 Hpa
16:58:17.0248 °(WSW)1.2 Kts0.4 Kts14.0 Kts15.7 °C15.7 °C0.0 mm1040.0 Hpa
16:37:23.0248 °(WSW)0.2 Kts0.2 Kts14.0 Kts16.0 °C16.0 °C0.0 mm1040.0 Hpa
16:19:27.0248 °(WSW)0.0 Kts0.0 Kts14.0 Kts15.4 °C15.4 °C0.0 mm1040.0 Hpa
15:58:58.0248 °(WSW)1.6 Kts0.0 Kts14.0 Kts15.8 °C15.8 °C0.0 mm1041.0 Hpa
15:38:34.0248 °(WSW)0.2 Kts0.2 Kts14.0 Kts15.6 °C15.6 °C0.0 mm1041.0 Hpa
15:18:14.0202 °(SSW)0.8 Kts0.6 Kts14.0 Kts13.7 °C13.7 °C0.0 mm1040.0 Hpa
14:58:05.0202 °(SSW)3.3 Kts2.9 Kts14.0 Kts13.7 °C13.7 °C0.0 mm1041.0 Hpa
14:37:43.0180 °(S)4.3 Kts3.7 Kts14.0 Kts13.6 °C13.3 °C0.0 mm1041.0 Hpa
14:17:15.0180 °(S)5.4 Kts4.9 Kts14.0 Kts13.7 °C13.1 °C0.0 mm1041.0 Hpa
13:59:20.0158 °(SSE)5.4 Kts5.4 Kts14.0 Kts13.9 °C13.2 °C0.0 mm1041.0 Hpa
13:39:07.0180 °(S)5.8 Kts4.1 Kts14.0 Kts14.0 °C13.8 °C0.0 mm1041.0 Hpa
13:18:44.0158 °(SSE)8.2 Kts6.2 Kts14.0 Kts13.8 °C12.9 °C0.0 mm1042.0 Hpa
12:58:24.0180 °(S)5.2 Kts5.2 Kts8.0 Kts14.3 °C13.8 °C0.0 mm1042.0 Hpa
12:38:05.0180 °(S)5.8 Kts5.4 Kts8.0 Kts13.9 °C13.2 °C0.0 mm1042.0 Hpa
12:17:31.0158 °(SSE)6.0 Kts5.8 Kts8.0 Kts14.3 °C13.7 °C0.0 mm1042.0 Hpa